Time;durP1;ratioP1;P1;durP2;ratioP2;P2;SDS_P1;SDS_P2;PMS_P1;PMS_P2;Temp;Humidity;BMP_temperature;BMP_pressure;BME280_temperature;BME280_humidity;BME280_pressure;Samples;Min_cycle;Max_cycle;Signal;HPM_P1;HPM_P2
2023/06/12 00:00:51;;;;;;;7.72;6.60;;;18.90;71.70;;;;;;4936391;28;87558;-76
2023/06/12 00:03:17;;;;;;;8.57;6.88;;;18.80;71.50;;;;;;4956582;28;88000;-75
2023/06/12 00:05:44;;;;;;;12.35;7.80;;;18.70;72.00;;;;;;4956511;28;88552;-75
2023/06/12 00:08:11;;;;;;;10.15;7.47;;;18.70;72.80;;;;;;4957430;28;88372;-75
2023/06/12 00:10:39;;;;;;;11.98;7.53;;;18.60;72.80;;;;;;4938021;28;87674;-76
2023/06/12 00:13:05;;;;;;;9.70;7.32;;;18.60;72.30;;;;;;4954473;28;89107;-75
2023/06/12 00:15:30;;;;;;;9.23;7.70;;;18.60;72.70;;;;;;4956292;28;88772;-75
2023/06/12 00:17:56;;;;;;;9.30;7.40;;;18.60;74.20;;;;;;4956279;28;88956;-75
2023/06/12 00:20:22;;;;;;;10.82;7.43;;;18.50;75.10;;;;;;4956064;28;88810;-76
2023/06/12 00:22:47;;;;;;;8.68;7.30;;;18.40;74.50;;;;;;4956755;28;87365;-76
2023/06/12 00:25:13;;;;;;;13.65;7.70;;;18.30;74.30;;;;;;4956385;28;89009;-76
2023/06/12 00:27:38;;;;;;;9.82;7.55;;;18.30;74.80;;;;;;4956795;28;88748;-75
2023/06/12 00:30:05;;;;;;;10.93;8.25;;;18.20;75.20;;;;;;4956490;28;89004;-76
2023/06/12 00:32:30;;;;;;;11.98;7.70;;;18.10;74.60;;;;;;4956846;28;87108;-76
2023/06/12 00:34:56;;;;;;;11.20;7.90;;;18.10;75.30;;;;;;4956354;28;87949;-76
2023/06/12 00:37:24;;;;;;;9.93;7.65;;;18.10;76.10;;;;;;4956615;28;87571;-76
2023/06/12 00:39:51;;;;;;;9.18;7.55;;;18.10;76.20;;;;;;4955694;28;88684;-76
2023/06/12 00:42:16;;;;;;;8.80;6.97;;;18.00;74.70;;;;;;4955315;28;87459;-76
2023/06/12 00:44:42;;;;;;;7.93;7.07;;;18.00;74.20;;;;;;4956619;28;88600;-76
2023/06/12 00:47:10;;;;;;;9.88;7.25;;;18.00;74.50;;;;;;4956269;28;88047;-75
2023/06/12 00:49:36;;;;;;;10.68;7.82;;;18.00;74.90;;;;;;4955620;28;87195;-76
2023/06/12 00:52:02;;;;;;;9.57;7.95;;;18.00;74.70;;;;;;4956323;28;87909;-76
2023/06/12 00:54:29;;;;;;;9.52;7.45;;;17.90;76.10;;;;;;4954155;28;92929;-75
2023/06/12 00:56:56;;;;;;;8.75;7.60;;;17.90;75.30;;;;;;4956474;28;87852;-76
2023/06/12 00:59:23;;;;;;;9.45;8.02;;;17.80;76.10;;;;;;4956025;28;87943;-76
2023/06/12 01:01:50;;;;;;;8.65;7.63;;;17.70;77.60;;;;;;4956442;28;87488;-75
2023/06/12 01:04:17;;;;;;;11.45;8.05;;;17.70;77.60;;;;;;4955460;28;89482;-76
2023/06/12 01:06:54;;;;;;;8.13;6.68;;;17.60;76.20;;;;;;4956022;28;88897;-75
2023/06/12 01:09:40;;;;;;;9.43;7.80;;;17.60;76.30;;;;;;4956311;28;87658;-75
2023/06/12 01:12:07;;;;;;;10.80;7.25;;;17.50;78.50;;;;;;4956299;28;88040;-75
2023/06/12 01:14:33;;;;;;;10.85;7.65;;;17.40;78.30;;;;;;4955521;28;89423;-76
2023/06/12 01:17:02;;;;;;;11.98;7.45;;;17.40;78.10;;;;;;4955240;28;87928;-75
2023/06/12 01:19:28;;;;;;;9.73;7.18;;;17.40;77.90;;;;;;4955433;28;87546;-75
2023/06/12 01:21:58;;;;;;;9.73;7.68;;;17.30;78.20;;;;;;4956001;28;87132;-76
2023/06/12 01:24:53;;;;;;;10.55;7.53;;;17.30;79.70;;;;;;4955863;28;88392;-76
2023/06/12 01:27:57;;;;;;;10.57;7.50;;;17.30;78.90;;;;;;4955547;28;87790;-75
2023/06/12 01:30:26;;;;;;;8.32;7.38;;;17.20;79.30;;;;;;4937199;28;88679;-76
2023/06/12 01:32:52;;;;;;;8.80;7.72;;;17.20;79.60;;;;;;4955046;28;87143;-75
2023/06/12 01:35:23;;;;;;;11.30;8.23;;;17.10;79.60;;;;;;4954883;28;88685;-75
2023/06/12 01:38:00;;;;;;;11.18;7.35;;;17.10;80.80;;;;;;4955322;28;88348;-77
2023/06/12 01:40:28;;;;;;;10.82;8.15;;;17.00;80.60;;;;;;4954766;28;87858;-76
2023/06/12 01:42:54;;;;;;;9.90;7.65;;;16.90;81.40;;;;;;4955567;28;88072;-76
2023/06/12 01:45:20;;;;;;;12.55;8.43;;;16.90;81.30;;;;;;4937828;28;91871;-75
2023/06/12 01:47:45;;;;;;;10.02;7.72;;;16.90;80.80;;;;;;4956050;28;88204;-76
2023/06/12 01:50:13;;;;;;;10.07;7.72;;;16.80;82.10;;;;;;4955930;28;87955;-76
2023/06/12 01:52:40;;;;;;;12.18;8.02;;;16.80;82.30;;;;;;4955931;28;87573;-76
2023/06/12 01:55:06;;;;;;;8.90;7.72;;;16.70;81.80;;;;;;4955254;28;90089;-76
2023/06/12 01:57:32;;;;;;;11.80;8.70;;;16.70;82.50;;;;;;4955845;28;89892;-76
2023/06/12 01:59:59;;;;;;;10.90;8.20;;;16.70;82.20;;;;;;4955424;28;87634;-75
2023/06/12 02:02:26;;;;;;;11.48;8.65;;;16.60;82.90;;;;;;4954863;28;87973;-76
2023/06/12 02:04:52;;;;;;;11.70;9.05;;;16.60;83.20;;;;;;4955063;28;88822;-76
2023/06/12 02:07:17;;;;;;;9.55;8.52;;;16.50;83.00;;;;;;4955551;28;87908;-76
2023/06/12 02:09:43;;;;;;;12.00;8.88;;;16.50;83.10;;;;;;4954670;28;87816;-76
2023/06/12 02:12:09;;;;;;;11.52;9.07;;;16.40;83.50;;;;;;4955535;28;87336;-75
2023/06/12 02:14:35;;;;;;;12.90;8.93;;;16.40;83.60;;;;;;4955358;28;88491;-75
2023/06/12 02:17:04;;;;;;;11.00;8.57;;;16.40;83.70;;;;;;4954629;28;87459;-75
2023/06/12 02:19:29;;;;;;;9.57;8.57;;;16.40;82.50;;;;;;4954506;28;88405;-75
2023/06/12 02:21:56;;;;;;;11.80;8.85;;;16.30;81.60;;;;;;4954814;28;87355;-75
2023/06/12 02:24:26;;;;;;;13.88;9.48;;;16.30;82.40;;;;;;4954268;28;88712;-76
2023/06/12 02:26:52;;;;;;;14.13;9.38;;;16.30;82.40;;;;;;4954174;28;90684;-75
2023/06/12 02:29:17;;;;;;;12.93;9.05;;;16.30;81.80;;;;;;4954471;28;87911;-75
2023/06/12 02:31:43;;;;;;;13.82;9.95;;;16.20;84.20;;;;;;4954790;28;87678;-76
2023/06/12 02:34:09;;;;;;;11.85;9.27;;;16.20;84.10;;;;;;4953595;28;88813;-75
2023/06/12 02:36:40;;;;;;;15.88;9.68;;;16.10;84.00;;;;;;4955396;28;87809;-75
2023/06/12 02:39:12;;;;;;;10.27;8.85;;;16.00;84.60;;;;;;4954732;28;87951;-75
2023/06/12 02:41:41;;;;;;;10.30;9.20;;;16.00;85.40;;;;;;4952979;28;91148;-75
2023/06/12 02:44:07;;;;;;;11.88;8.80;;;16.00;85.00;;;;;;4954022;28;89372;-75
2023/06/12 02:46:33;;;;;;;12.60;9.63;;;15.90;84.80;;;;;;4954695;28;89040;-76
2023/06/12 02:48:59;;;;;;;11.07;8.63;;;15.90;85.40;;;;;;4955306;28;87578;-76
2023/06/12 02:51:24;;;;;;;12.48;8.45;;;15.90;85.50;;;;;;4955024;28;87956;-76
2023/06/12 02:53:50;;;;;;;11.25;9.52;;;15.90;85.10;;;;;;4954110;28;87891;-76
2023/06/12 02:56:16;;;;;;;17.20;9.73;;;15.90;86.90;;;;;;4953461;28;88655;-75
2023/06/12 02:58:41;;;;;;;10.32;8.75;;;15.80;86.90;;;;;;4954386;28;87462;-75
2023/06/12 03:01:07;;;;;;;11.00;8.93;;;15.70;86.10;;;;;;4954701;28;87922;-76
2023/06/12 03:03:35;;;;;;;12.80;8.70;;;15.70;86.10;;;;;;4954624;28;88502;-76
2023/06/12 03:06:01;;;;;;;12.77;9.60;;;15.70;87.00;;;;;;4956446;28;88476;-76
2023/06/12 03:08:27;;;;;;;11.00;8.40;;;15.60;87.50;;;;;;4957651;28;88512;-76
2023/06/12 03:10:53;;;;;;;10.82;8.65;;;15.60;87.20;;;;;;4957995;28;87498;-76
2023/06/12 03:13:19;;;;;;;13.02;9.88;;;15.50;86.40;;;;;;4957786;28;89405;-76
2023/06/12 03:15:45;;;;;;;11.48;9.40;;;15.60;87.50;;;;;;4957899;28;88335;-76
2023/06/12 03:18:10;;;;;;;13.95;9.35;;;15.50;87.90;;;;;;4958087;28;87684;-76
2023/06/12 03:20:36;;;;;;;14.32;9.35;;;15.50;88.30;;;;;;4957849;28;87748;-76
2023/06/12 03:23:02;;;;;;;12.38;9.27;;;15.40;87.80;;;;;;4957914;28;89119;-76
2023/06/12 03:25:28;;;;;;;11.30;9.45;;;15.40;88.50;;;;;;4957364;28;89122;-76
2023/06/12 03:27:53;;;;;;;11.25;9.20;;;15.30;88.80;;;;;;4957828;28;87517;-75
2023/06/12 03:30:19;;;;;;;13.20;9.45;;;15.30;88.90;;;;;;4956944;28;87705;-75
2023/06/12 03:32:45;;;;;;;13.25;9.15;;;15.30;89.40;;;;;;4957168;28;89647;-76
2023/06/12 03:35:12;;;;;;;16.70;9.48;;;15.20;89.60;;;;;;4938989;28;91445;-76
2023/06/12 03:37:38;;;;;;;11.10;9.32;;;15.20;89.60;;;;;;4939593;28;87597;-75
2023/06/12 03:40:05;;;;;;;10.48;9.38;;;15.30;90.00;;;;;;4957500;28;87980;-75
2023/06/12 03:42:30;;;;;;;12.23;10.07;;;15.20;89.50;;;;;;4956777;28;87820;-76
2023/06/12 03:44:56;;;;;;;11.75;9.43;;;15.20;90.00;;;;;;4956594;28;87995;-75
2023/06/12 03:47:21;;;;;;;16.45;10.20;;;15.20;89.80;;;;;;4957646;28;87796;-76
2023/06/12 03:49:47;;;;;;;11.73;9.10;;;15.20;90.20;;;;;;4956971;28;87093;-76
2023/06/12 03:52:13;;;;;;;11.35;10.05;;;15.20;89.80;;;;;;4957474;28;88206;-80
2023/06/12 03:54:39;;;;;;;13.07;9.52;;;15.20;89.70;;;;;;4959364;28;88980;-81
2023/06/12 03:57:26;;;;;;;12.43;9.18;;;15.20;90.00;;;;;;4942079;28;88573;-82
2023/06/12 03:59:53;;;;;;;14.30;9.45;;;15.20;89.60;;;;;;4959135;28;90728;-82
2023/06/12 04:02:19;;;;;;;11.80;10.25;;;15.20;89.20;;;;;;4941378;28;91715;-84
2023/06/12 04:04:46;;;;;;;14.73;9.30;;;15.30;89.60;;;;;;4949458;28;91758;-83
2023/06/12 04:07:14;;;;;;;11.82;9.32;;;15.30;90.00;;;;;;4958358;28;87708;-84
2023/06/12 04:09:40;;;;;;;12.25;9.40;;;15.30;89.40;;;;;;4974775;28;90117;-82
2023/06/12 04:12:06;;;;;;;12.95;9.95;;;15.30;89.80;;;;;;4959998;28;87796;-81
2023/06/12 04:14:32;;;;;;;15.35;10.25;;;15.40;89.40;;;;;;4941595;28;91096;-81
2023/06/12 04:16:57;;;;;;;11.82;9.73;;;15.40;89.60;;;;;;4956571;28;87287;-84
2023/06/12 04:19:23;;;;;;;13.00;9.25;;;15.40;90.30;;;;;;4959224;28;87173;-83
2023/06/12 04:21:49;;;;;;;16.27;10.38;;;15.40;89.90;;;;;;4941514;28;92293;-84
2023/06/12 04:24:19;;;;;;;13.43;9.45;;;15.50;89.30;;;;;;4957316;28;92340;-83
2023/06/12 04:26:46;;;;;;;14.57;10.20;;;15.60;89.00;;;;;;4958128;28;87703;-84
2023/06/12 04:29:12;;;;;;;11.95;10.02;;;15.60;88.50;;;;;;4940860;28;90380;-84
2023/06/12 04:31:38;;;;;;;12.77;9.85;;;15.70;89.30;;;;;;4957594;28;91634;-84
2023/06/12 04:34:06;;;;;;;16.58;9.77;;;15.70;89.80;;;;;;4974090;28;91199;-84
2023/06/12 04:36:37;;;;;;;33.40;11.10;;;15.80;90.20;;;;;;4941501;28;87884;-81
2023/06/12 04:39:04;;;;;;;34.25;11.52;;;15.90;89.80;;;;;;4956543;28;90998;-81
2023/06/12 04:41:32;;;;;;;38.13;10.60;;;15.90;89.30;;;;;;4957776;28;88512;-80
2023/06/12 04:44:03;;;;;;;25.35;11.38;;;16.00;88.10;;;;;;4957879;28;88258;-80
2023/06/12 04:46:28;;;;;;;23.92;10.43;;;16.00;87.00;;;;;;4957583;28;88682;-79
2023/06/12 04:48:55;;;;;;;21.02;10.05;;;16.10;85.50;;;;;;4957409;28;87692;-79
2023/06/12 04:51:23;;;;;;;25.70;10.75;;;16.20;84.30;;;;;;4957549;28;89265;-78
2023/06/12 04:53:49;;;;;;;15.48;9.93;;;16.30;84.70;;;;;;4957607;28;87307;-79
2023/06/12 04:56:20;;;;;;;18.10;9.45;;;16.40;85.80;;;;;;4958317;28;87463;-78
2023/06/12 04:58:46;;;;;;;16.95;8.63;;;16.50;84.70;;;;;;4957079;28;90824;-82
2023/06/12 05:01:12;;;;;;;12.90;8.68;;;16.60;84.30;;;;;;4939388;28;90007;-80
2023/06/12 05:03:40;;;;;;;14.52;9.20;;;16.70;83.00;;;;;;4940764;28;90083;-80
2023/06/12 05:06:07;;;;;;;17.98;8.70;;;16.80;83.10;;;;;;4958163;28;87859;-82
2023/06/12 05:08:33;;;;;;;12.32;8.63;;;16.90;81.90;;;;;;4940159;28;90258;-81
2023/06/12 05:10:59;;;;;;;12.38;7.70;;;17.10;80.90;;;;;;4956053;28;92340;-81
2023/06/12 05:13:24;;;;;;;13.02;7.80;;;17.10;78.90;;;;;;4939747;28;91195;-81
2023/06/12 05:15:50;;;;;;;11.82;8.05;;;17.20;78.70;;;;;;4957148;28;87805;-82
2023/06/12 05:18:16;;;;;;;19.02;8.25;;;17.40;78.50;;;;;;4940100;28;90575;-83
2023/06/12 05:20:41;;;;;;;10.88;8.88;;;17.50;78.60;;;;;;4957794;28;88629;-82
2023/06/12 05:23:07;;;;;;;12.65;8.07;;;17.60;77.40;;;;;;4956871;28;90221;-82
2023/06/12 05:25:33;;;;;;;16.35;8.20;;;17.70;77.20;;;;;;4956329;28;87572;-81
2023/06/12 05:27:58;;;;;;;14.45;8.18;;;17.80;78.20;;;;;;4957950;28;88530;-81
2023/06/12 05:30:24;;;;;;;10.43;7.47;;;17.90;77.40;;;;;;4957793;28;88533;-84
2023/06/12 05:32:50;;;;;;;14.38;7.25;;;18.00;77.30;;;;;;4957594;28;89343;-82
2023/06/12 05:35:15;;;;;;;11.70;7.43;;;18.10;76.50;;;;;;4956046;28;88456;-81
2023/06/12 05:37:41;;;;;;;13.65;7.82;;;18.20;75.80;;;;;;4957603;28;87747;-81
2023/06/12 05:40:09;;;;;;;13.05;7.15;;;18.30;76.50;;;;;;4939424;28;90278;-80
2023/06/12 05:42:35;;;;;;;18.55;8.55;;;18.40;75.20;;;;;;4956640;28;88993;-81
2023/06/12 05:45:01;;;;;;;14.20;6.97;;;18.60;74.90;;;;;;4957670;28;87205;-81
2023/06/12 05:47:27;;;;;;;11.02;6.55;;;18.70;75.10;;;;;;4957631;28;87435;-81
2023/06/12 05:49:53;;;;;;;11.25;6.32;;;18.80;73.90;;;;;;4939418;28;89401;-82
2023/06/12 05:52:19;;;;;;;8.43;5.72;;;18.90;72.90;;;;;;4940500;28;89147;-81
2023/06/12 05:54:45;;;;;;;10.38;5.88;;;19.00;72.00;;;;;;4939905;28;87773;-81
2023/06/12 05:57:13;;;;;;;12.88;5.75;;;19.10;71.90;;;;;;4955792;28;90479;-81
2023/06/12 05:59:39;;;;;;;10.68;5.82;;;19.20;70.40;;;;;;4957501;28;89677;-83
2023/06/12 06:02:04;;;;;;;12.90;5.88;;;19.30;71.00;;;;;;4972944;28;93124;-83
2023/06/12 06:04:30;;;;;;;8.38;5.80;;;19.50;71.90;;;;;;4956354;28;87257;-82
2023/06/12 06:06:56;;;;;;;9.52;6.18;;;19.60;71.10;;;;;;4939319;28;90356;-82
2023/06/12 06:09:22;;;;;;;10.10;6.13;;;19.70;70.10;;;;;;4939061;28;90176;-82
2023/06/12 06:11:48;;;;;;;7.57;5.57;;;19.80;70.20;;;;;;4957617;28;88728;-83
2023/06/12 06:14:14;;;;;;;8.27;5.30;;;19.90;68.80;;;;;;4957368;28;87398;-84
2023/06/12 06:16:40;;;;;;;8.07;5.88;;;20.00;69.00;;;;;;4955797;28;90646;-84
2023/06/12 06:19:07;;;;;;;8.98;5.43;;;20.20;67.00;;;;;;4955912;28;91654;-82
2023/06/12 06:21:34;;;;;;;14.40;6.28;;;20.40;66.40;;;;;;4956927;28;87715;-78
2023/06/12 06:24:00;;;;;;;9.18;5.20;;;20.50;67.00;;;;;;4931017;28;88461;-82
2023/06/12 06:26:27;;;;;;;7.28;5.40;;;20.60;65.00;;;;;;4953237;28;90100;-82
2023/06/12 06:28:53;;;;;;;10.20;5.43;;;20.80;64.90;;;;;;4938349;28;89276;-83
2023/06/12 06:31:19;;;;;;;7.03;5.15;;;20.90;64.40;;;;;;4971573;28;91510;-82
2023/06/12 06:33:45;;;;;;;8.32;4.75;;;21.10;63.20;;;;;;4971455;28;87809;-84
2023/06/12 06:36:10;;;;;;;8.40;5.43;;;21.20;64.20;;;;;;4938852;28;89435;-82
2023/06/12 06:38:36;;;;;;;8.75;5.00;;;21.30;62.40;;;;;;4938389;28;90352;-79
2023/06/12 06:41:02;;;;;;;12.40;5.40;;;21.50;61.30;;;;;;4937353;28;90168;-82
2023/06/12 06:43:28;;;;;;;8.60;5.35;;;21.60;63.20;;;;;;4971485;28;87762;-82
2023/06/12 06:45:53;;;;;;;7.45;4.68;;;21.80;61.20;;;;;;4957328;28;87932;-82
2023/06/12 06:48:19;;;;;;;7.80;5.53;;;22.00;62.60;;;;;;4955082;28;92925;-87
2023/06/12 06:50:45;;;;;;;8.15;5.55;;;22.10;62.50;;;;;;4939836;28;92248;-83
2023/06/12 06:53:10;;;;;;;9.57;5.32;;;22.20;61.00;;;;;;4956375;28;87113;-82
2023/06/12 06:55:37;;;;;;;6.65;4.57;;;22.40;60.10;;;;;;4940698;28;90477;-84
2023/06/12 06:58:04;;;;;;;5.65;4.43;;;22.50;60.90;;;;;;4958424;28;89422;-83
2023/06/12 07:00:29;;;;;;;6.50;4.13;;;22.70;61.30;;;;;;4952931;28;88341;-85
2023/06/12 07:02:55;;;;;;;6.82;4.82;;;22.80;59.30;;;;;;4939764;28;87911;-85
2023/06/12 07:05:21;;;;;;;6.68;4.30;;;23.10;57.70;;;;;;4940207;28;89213;-85
2023/06/12 07:07:48;;;;;;;10.38;4.90;;;23.20;58.90;;;;;;4956437;28;90305;-86
2023/06/12 07:10:14;;;;;;;9.02;4.80;;;23.40;56.90;;;;;;4956009;28;90621;-83
2023/06/12 07:13:09;;;;;;;8.55;5.22;;;23.60;57.60;;;;;;4956352;28;88830;-84
2023/06/12 07:15:41;;;;;;;6.72;4.93;;;23.70;55.60;;;;;;4955165;28;88910;-84
2023/06/12 07:18:11;;;;;;;13.00;4.85;;;23.90;57.60;;;;;;4939689;28;89602;-81
2023/06/12 07:20:40;;;;;;;9.68;4.85;;;24.00;55.90;;;;;;4953481;28;89753;-82
2023/06/12 07:23:06;;;;;;;7.80;4.38;;;24.20;55.70;;;;;;4955674;28;88014;-85
2023/06/12 07:25:32;;;;;;;8.85;4.90;;;24.40;56.50;;;;;;4940649;28;89271;-84
2023/06/12 07:27:57;;;;;;;7.00;4.80;;;24.60;55.80;;;;;;4956465;28;90431;-85
2023/06/12 07:30:23;;;;;;;7.13;4.70;;;24.70;55.70;;;;;;4956599;28;91170;-82
2023/06/12 07:32:49;;;;;;;9.40;4.88;;;24.90;54.20;;;;;;4973492;28;87804;-83
2023/06/12 07:35:15;;;;;;;7.90;4.18;;;25.00;53.80;;;;;;4958449;28;87196;-86
2023/06/12 07:37:42;;;;;;;7.07;4.60;;;25.20;54.40;;;;;;4940127;28;92699;-87
2023/06/12 07:40:09;;;;;;;11.27;5.22;;;25.30;53.60;;;;;;4940152;28;91766;-82
2023/06/12 07:42:35;;;;;;;10.60;4.50;;;25.50;52.50;;;;;;4955819;28;87699;-83
2023/06/12 07:45:01;;;;;;;9.57;5.32;;;25.70;53.60;;;;;;4955197;28;90720;-78
2023/06/12 07:47:27;;;;;;;8.23;4.53;;;25.90;52.70;;;;;;4957108;28;88216;-79
2023/06/12 07:49:52;;;;;;;11.02;4.95;;;26.10;52.40;;;;;;4971727;28;89959;-83
2023/06/12 07:52:20;;;;;;;11.63;4.97;;;26.30;50.80;;;;;;4960163;28;87431;-79
2023/06/12 07:54:47;;;;;;;7.95;4.20;;;26.40;47.30;;;;;;4960306;28;87201;-78
2023/06/12 07:57:13;;;;;;;8.25;4.82;;;26.60;52.30;;;;;;4959871;28;87913;-78
2023/06/12 07:59:39;;;;;;;10.75;4.65;;;26.80;52.00;;;;;;4959211;28;88355;-83
2023/06/12 08:02:06;;;;;;;7.05;4.22;;;27.00;51.20;;;;;;4942305;28;88576;-81
2023/06/12 08:04:33;;;;;;;10.27;4.43;;;27.30;52.00;;;;;;4941767;28;90992;-83
2023/06/12 08:07:00;;;;;;;7.60;5.32;;;27.50;50.20;;;;;;4943117;28;92070;-83
2023/06/12 08:09:26;;;;;;;6.63;4.47;;;27.70;48.10;;;;;;4942625;28;90018;-82
2023/06/12 08:11:52;;;;;;;7.70;4.72;;;27.90;50.10;;;;;;4959838;28;87481;-83
2023/06/12 08:14:20;;;;;;;10.07;5.15;;;28.10;49.30;;;;;;4942983;28;90187;-84
2023/06/12 08:16:46;;;;;;;8.32;4.50;;;28.20;45.70;;;;;;4957639;28;89094;-85
2023/06/12 08:19:15;;;;;;;7.22;5.35;;;28.30;49.20;;;;;;4959078;28;88715;-82
2023/06/12 08:21:43;;;;;;;9.27;4.95;;;28.50;48.30;;;;;;4943009;28;87793;-84
2023/06/12 08:24:10;;;;;;;7.97;4.97;;;28.80;49.40;;;;;;4957842;28;89105;-85
2023/06/12 08:26:36;;;;;;;12.93;5.85;;;29.00;48.60;;;;;;4942154;28;90845;-82
2023/06/12 08:29:08;;;;;;;8.18;5.30;;;29.20;44.40;;;;;;4957861;28;90158;-84
2023/06/12 08:31:43;;;;;;;5.73;4.27;;;29.20;46.30;;;;;;4943072;28;87699;-85
2023/06/12 08:34:09;;;;;;;9.10;4.97;;;29.40;45.80;;;;;;4958988;28;90640;-84
2023/06/12 08:36:35;;;;;;;8.90;4.70;;;29.50;46.80;;;;;;4958312;28;89833;-84
2023/06/12 08:39:00;;;;;;;11.43;5.20;;;29.80;45.80;;;;;;4942469;28;89955;-87
2023/06/12 08:41:29;;;;;;;11.88;4.72;;;29.90;47.10;;;;;;4957616;28;87558;-81
2023/06/12 08:44:01;;;;;;;15.50;5.57;;;30.00;46.00;;;;;;4958530;28;87280;-81
2023/06/12 08:46:33;;;;;;;7.07;4.45;;;30.10;43.80;;;;;;4940559;28;90839;-81
2023/06/12 08:49:00;;;;;;;9.00;4.57;;;30.40;44.80;;;;;;4956987;28;91318;-81
2023/06/12 08:51:27;;;;;;;8.35;4.88;;;30.60;45.40;;;;;;4973806;28;88455;-81
2023/06/12 08:53:55;;;;;;;11.57;4.55;;;30.80;43.20;;;;;;4940484;28;90457;-81
2023/06/12 08:56:21;;;;;;;6.90;4.53;;;30.80;43.60;;;;;;4957144;28;91542;-82
2023/06/12 08:58:47;;;;;;;6.55;4.20;;;31.00;45.20;;;;;;4959038;28;88244;-82
2023/06/12 09:01:14;;;;;;;7.88;4.32;;;31.30;42.70;;;;;;4957848;28;87554;-84
2023/06/12 09:03:46;;;;;;;8.93;4.78;;;31.40;43.50;;;;;;4956907;28;89136;-86
2023/06/12 09:06:13;;;;;;;8.82;4.22;;;31.60;42.50;;;;;;4941064;28;91572;-83
2023/06/12 09:08:41;;;;;;;6.93;4.25;;;31.70;42.40;;;;;;4958332;28;87337;-81
2023/06/12 09:11:06;;;;;;;7.00;4.00;;;31.90;41.30;;;;;;4957578;28;87592;-81
2023/06/12 09:13:42;;;;;;;9.45;4.63;;;32.00;41.20;;;;;;4958498;28;87552;-81
2023/06/12 09:16:12;;;;;;;5.25;4.10;;;32.10;41.00;;;;;;4958661;28;88575;-82
2023/06/12 09:18:51;;;;;;;9.35;4.03;;;32.10;42.20;;;;;;4957167;28;92015;-81
2023/06/12 09:21:17;;;;;;;6.35;3.97;;;32.30;40.80;;;;;;4957372;28;87163;-81
2023/06/12 09:23:45;;;;;;;7.47;4.20;;;32.40;41.70;;;;;;4959157;28;88332;-81
2023/06/12 09:26:16;;;;;;;4.82;3.65;;;32.40;41.90;;;;;;4959415;28;87761;-81
2023/06/12 09:28:43;;;;;;;5.82;4.10;;;32.50;41.70;;;;;;4940645;28;89372;-82
2023/06/12 09:31:09;;;;;;;9.20;3.80;;;32.80;40.80;;;;;;4941243;28;87614;-82
2023/06/12 09:33:39;;;;;;;4.93;3.80;;;33.00;41.00;;;;;;4959123;28;87399;-82
2023/06/12 09:36:05;;;;;;;4.72;3.42;;;33.20;40.20;;;;;;4956884;28;90513;-82
2023/06/12 09:38:33;;;;;;;9.60;4.10;;;33.30;39.50;;;;;;4939731;28;91752;-82
2023/06/12 09:41:00;;;;;;;5.03;4.22;;;33.50;39.70;;;;;;4956041;28;88238;-82
2023/06/12 09:43:26;;;;;;;5.07;3.95;;;33.70;37.40;;;;;;4940264;28;89541;-82
2023/06/12 09:45:52;;;;;;;7.00;4.22;;;33.60;38.70;;;;;;4939964;28;91662;-81
2023/06/12 09:48:18;;;;;;;7.90;4.38;;;33.90;39.10;;;;;;4956771;28;90176;-82
2023/06/12 09:50:46;;;;;;;7.90;4.18;;;34.10;38.90;;;;;;4940428;28;87898;-83
2023/06/12 09:53:16;;;;;;;5.63;3.90;;;34.30;39.50;;;;;;4939876;28;90087;-82
2023/06/12 09:55:46;;;;;;;4.57;3.20;;;34.60;39.00;;;;;;4958100;28;87760;-82
2023/06/12 09:58:17;;;;;;;6.10;3.67;;;34.70;38.90;;;;;;4973361;28;90504;-82
2023/06/12 10:00:43;;;;;;;5.80;3.75;;;34.90;36.60;;;;;;4958406;28;87573;-82
2023/06/12 10:03:14;;;;;;;5.50;4.30;;;35.10;38.70;;;;;;4957921;28;87556;-81
2023/06/12 10:05:51;;;;;;;8.25;3.45;;;35.30;33.10;;;;;;4957323;28;89499;-83
2023/06/12 10:08:18;;;;;;;4.68;3.78;;;35.30;37.50;;;;;;4956170;28;91919;-86
2023/06/12 10:10:44;;;;;;;5.35;3.60;;;35.30;37.20;;;;;;4940786;28;87653;-81
2023/06/12 10:13:12;;;;;;;5.40;3.55;;;35.50;37.90;;;;;;4957554;28;87418;-81
2023/06/12 10:15:39;;;;;;;5.07;3.97;;;35.60;35.80;;;;;;4938225;28;90799;-81
2023/06/12 10:18:08;;;;;;;4.93;3.45;;;35.60;37.30;;;;;;4945645;28;89448;-81
2023/06/12 10:20:34;;;;;;;4.57;3.50;;;35.90;36.20;;;;;;4957612;28;87389;-81
2023/06/12 10:23:02;;;;;;;5.20;3.50;;;36.10;36.00;;;;;;4957782;28;87000;-81
2023/06/12 10:25:30;;;;;;;5.78;3.50;;;36.40;36.60;;;;;;4956165;28;88328;-80
2023/06/12 10:27:56;;;;;;;6.55;3.47;;;36.50;34.30;;;;;;4956911;28;88577;-80
2023/06/12 10:30:22;;;;;;;5.97;3.50;;;36.70;35.90;;;;;;4955241;28;88869;-81
2023/06/12 10:32:47;;;;;;;4.82;3.53;;;36.80;35.00;;;;;;4939317;28;90606;-83
2023/06/12 10:35:31;;;;;;;5.35;3.53;;;36.80;33.30;;;;;;4955801;28;90468;-80
2023/06/12 10:37:57;;;;;;;6.85;3.85;;;36.60;36.80;;;;;;4956586;28;89662;-77
2023/06/12 10:40:23;;;;;;;3.92;3.45;;;36.80;35.30;;;;;;4972467;28;87563;-77
2023/06/12 10:42:52;;;;;;;4.82;3.40;;;37.10;34.70;;;;;;4938910;28;90153;-77
2023/06/12 10:45:25;;;;;;;6.72;3.53;;;37.10;33.50;;;;;;4957209;28;88724;-77
2023/06/12 10:48:05;;;;;;;5.25;3.90;;;37.20;35.60;;;;;;4939760;28;91114;-77
2023/06/12 10:50:37;;;;;;;5.43;3.58;;;37.30;35.10;;;;;;4957666;28;87504;-77
2023/06/12 10:53:05;;;;;;;6.25;3.60;;;37.50;35.10;;;;;;4956822;28;87706;-77
2023/06/12 10:55:36;;;;;;;10.15;4.15;;;37.70;34.50;;;;;;4957103;28;89721;-77
2023/06/12 10:58:03;;;;;;;5.03;3.28;;;37.60;30.70;;;;;;4956642;28;88841;-77
2023/06/12 11:00:33;;;;;;;5.43;3.67;;;37.50;34.10;;;;;;4957969;28;87363;-77
2023/06/12 11:03:04;;;;;;;5.60;3.65;;;37.80;35.60;;;;;;4937989;28;90711;-77
2023/06/12 11:05:31;;;;;;;3.75;3.30;;;38.10;34.50;;;;;;4955986;28;88922;-77
2023/06/12 11:07:59;;;;;;;4.68;3.53;;;38.10;29.50;;;;;;4955389;28;90964;-77
2023/06/12 11:10:26;;;;;;;6.15;3.78;;;37.60;33.00;;;;;;4956830;28;87817;-77
2023/06/12 11:12:52;;;;;;;5.45;3.28;;;37.60;34.30;;;;;;4957206;28;87326;-77
2023/06/12 11:15:19;;;;;;;4.30;3.33;;;37.70;30.80;;;;;;4955309;28;91671;-77
2023/06/12 11:17:45;;;;;;;3.75;3.35;;;37.70;32.30;;;;;;4956462;28;88350;-77
2023/06/12 11:20:12;;;;;;;5.15;3.20;;;38.00;33.50;;;;;;4955911;28;89368;-77
2023/06/12 11:22:37;;;;;;;4.95;3.58;;;38.00;31.40;;;;;;4956470;28;87818;-77
2023/06/12 11:25:05;;;;;;;5.50;3.70;;;37.80;32.30;;;;;;4956009;28;88580;-77
2023/06/12 11:27:31;;;;;;;4.10;3.70;;;37.30;30.10;;;;;;4957838;28;91700;-77
2023/06/12 11:30:05;;;;;;;5.63;3.72;;;36.60;29.30;;;;;;4959681;28;87899;-77
2023/06/12 11:32:31;;;;;;;4.22;3.63;;;36.20;30.20;;;;;;4960126;28;87750;-78
2023/06/12 11:34:57;;;;;;;5.47;3.47;;;36.30;30.00;;;;;;4959653;28;88824;-77
2023/06/12 11:37:25;;;;;;;5.40;4.00;;;36.40;30.00;;;;;;4959775;28;87965;-77
2023/06/12 11:40:07;;;;;;;3.95;3.28;;;37.00;31.90;;;;;;4974802;28;87734;-77
2023/06/12 11:42:32;;;;;;;4.82;3.10;;;37.60;32.90;;;;;;4941683;28;89444;-77
2023/06/12 11:44:58;;;;;;;5.70;2.90;;;38.10;32.00;;;;;;4959222;28;89218;-77
2023/06/12 11:47:24;;;;;;;3.40;3.10;;;38.00;29.90;;;;;;4959797;28;88860;-78
2023/06/12 11:49:50;;;;;;;4.90;3.33;;;37.50;29.60;;;;;;4959811;28;87449;-80
2023/06/12 11:52:15;;;;;;;5.10;3.33;;;37.90;32.90;;;;;;4975467;28;90843;-84
2023/06/12 11:54:58;;;;;;;3.55;3.05;;;38.30;32.90;;;;;;4960319;28;88913;-85
2023/06/12 11:57:28;;;;;;;14.00;4.63;;;38.50;30.40;;;;;;4941180;28;90226;-84
2023/06/12 11:59:57;;;;;;;4.97;3.33;;;38.40;29.00;;;;;;4942550;28;87686;-84
2023/06/12 12:02:32;;;;;;;5.85;3.60;;;38.00;29.20;;;;;;4960470;28;86497;-84
2023/06/12 12:05:03;;;;;;;4.93;3.35;;;38.20;29.30;;;;;;4957553;28;91547;-84
2023/06/12 12:07:30;;;;;;;3.47;3.13;;;38.30;30.40;;;;;;4959970;28;88298;-84
2023/06/12 12:10:23;;;;;;;;;;;;;;;;;;;;;
2023/06/12 12:12:52;;;;;;;4.20;3.00;;;39.10;32.70;;;;;;4967821;28;116590;-81
2023/06/12 12:15:22;;;;;;;5.03;2.95;;;39.50;31.40;;;;;;4957277;28;91716;-82
2023/06/12 12:17:48;;;;;;;5.15;3.00;;;39.90;31.60;;;;;;4959322;28;89067;-79
2023/06/12 12:20:17;;;;;;;4.82;2.95;;;40.30;31.50;;;;;;4960017;28;87503;-79
2023/06/12 12:22:45;;;;;;;3.80;3.00;;;40.40;30.60;;;;;;4940809;28;89956;-80
2023/06/12 12:25:20;;;;;;;5.50;3.50;;;40.50;28.60;;;;;;4941829;28;92629;-81
2023/06/12 12:27:46;;;;;;;3.28;2.97;;;40.10;28.50;;;;;;4959132;28;88284;-80
2023/06/12 12:30:14;;;;;;;4.72;3.20;;;39.50;28.80;;;;;;4957081;28;87864;-80
2023/06/12 12:32:42;;;;;;;4.97;3.33;;;39.40;29.60;;;;;;4958982;28;88449;-81
2023/06/12 12:35:08;;;;;;;7.00;3.33;;;39.80;29.30;;;;;;4958827;28;90149;-80
2023/06/12 12:37:34;;;;;;;3.25;2.95;;;40.20;30.20;;;;;;4959269;28;89235;-80
2023/06/12 12:40:00;;;;;;;4.15;3.20;;;40.70;30.20;;;;;;4961135;28;88015;-80
2023/06/12 12:42:26;;;;;;;3.15;2.85;;;40.90;30.30;;;;;;4959120;28;87810;-80
2023/06/12 12:44:51;;;;;;;4.70;3.20;;;40.90;30.40;;;;;;4956899;28;91962;-80